sensor_id;sensor_type;location;lat;lon;timestamp;pressure;altitude;pressure_sealevel;temperature;humidity
39455;BME280;25155;41.890;23.446;2023-05-19T00:01:09;92004.88;;;10.71;79.74
39455;BME280;25155;41.890;23.446;2023-05-19T00:03:40;91996.78;;;10.73;79.32
39455;BME280;25155;41.890;23.446;2023-05-19T00:06:18;92001.75;;;10.74;79.42
39455;BME280;25155;41.890;23.446;2023-05-19T00:08:46;91997.06;;;10.76;79.16
39455;BME280;25155;41.890;23.446;2023-05-19T00:11:15;91996.78;;;10.78;79.26
39455;BME280;25155;41.890;23.446;2023-05-19T00:13:42;91992.88;;;10.75;79.23
39455;BME280;25155;41.890;23.446;2023-05-19T00:16:15;92001.47;;;10.76;79.17
39455;BME280;25155;41.890;23.446;2023-05-19T00:18:42;92009.03;;;10.77;79.34
39455;BME280;25155;41.890;23.446;2023-05-19T00:21:09;92003.81;;;10.77;79.02
39455;BME280;25155;41.890;23.446;2023-05-19T00:23:36;92006.41;;;10.77;78.98
39455;BME280;25155;41.890;23.446;2023-05-19T00:26:02;92008.00;;;10.78;79.02
39455;BME280;25155;41.890;23.446;2023-05-19T00:28:29;92009.56;;;10.79;79.16
39455;BME280;25155;41.890;23.446;2023-05-19T00:30:56;92005.91;;;10.80;79.44
39455;BME280;25155;41.890;23.446;2023-05-19T00:33:25;92004.88;;;10.81;79.13
39455;BME280;25155;41.890;23.446;2023-05-19T00:35:52;92008.50;;;10.80;78.47
39455;BME280;25155;41.890;23.446;2023-05-19T00:38:19;92008.00;;;10.78;78.63
39455;BME280;25155;41.890;23.446;2023-05-19T00:40:46;92010.59;;;10.78;78.69
39455;BME280;25155;41.890;23.446;2023-05-19T00:43:13;92015.81;;;10.73;78.50
39455;BME280;25155;41.890;23.446;2023-05-19T00:45:39;92012.72;;;10.71;78.92
39455;BME280;25155;41.890;23.446;2023-05-19T00:48:07;92008.53;;;10.70;79.26
39455;BME280;25155;41.890;23.446;2023-05-19T00:50:35;92009.28;;;10.70;79.46
39455;BME280;25155;41.890;23.446;2023-05-19T00:53:02;92012.16;;;10.69;78.97
39455;BME280;25155;41.890;23.446;2023-05-19T00:55:29;92007.75;;;10.69;78.96
39455;BME280;25155;41.890;23.446;2023-05-19T00:57:57;92002.28;;;10.66;79.05
39455;BME280;25155;41.890;23.446;2023-05-19T01:00:24;92012.16;;;10.64;79.28
39455;BME280;25155;41.890;23.446;2023-05-19T01:02:51;92008.78;;;10.63;79.63
39455;BME280;25155;41.890;23.446;2023-05-19T01:05:18;92000.69;;;10.65;79.67
39455;BME280;25155;41.890;23.446;2023-05-19T01:07:47;91997.84;;;10.66;79.52
39455;BME280;25155;41.890;23.446;2023-05-19T01:10:18;92008.78;;;10.63;79.50
39455;BME280;25155;41.890;23.446;2023-05-19T01:12:45;92003.81;;;10.62;79.54
39455;BME280;25155;41.890;23.446;2023-05-19T01:15:12;92005.13;;;10.64;79.64
39455;BME280;25155;41.890;23.446;2023-05-19T01:17:40;92000.69;;;10.65;79.93
39455;BME280;25155;41.890;23.446;2023-05-19T01:20:11;92004.63;;;10.67;79.51
39455;BME280;25155;41.890;23.446;2023-05-19T01:22:54;92005.13;;;10.69;79.80
39455;BME280;25155;41.890;23.446;2023-05-19T01:25:40;91995.22;;;10.71;79.41
39455;BME280;25155;41.890;23.446;2023-05-19T01:28:23;91986.06;;;10.69;78.95
39455;BME280;25155;41.890;23.446;2023-05-19T01:30:54;91976.97;;;10.66;79.29
39455;BME280;25155;41.890;23.446;2023-05-19T01:33:22;91979.06;;;10.64;79.02
39455;BME280;25155;41.890;23.446;2023-05-19T01:35:50;91975.13;;;10.62;79.07
39455;BME280;25155;41.890;23.446;2023-05-19T01:38:17;91987.66;;;10.60;78.83
39455;BME280;25155;41.890;23.446;2023-05-19T01:40:46;91979.84;;;10.60;79.02
39455;BME280;25155;41.890;23.446;2023-05-19T01:43:14;91978.25;;;10.59;79.46
39455;BME280;25155;41.890;23.446;2023-05-19T01:45:43;91975.66;;;10.59;78.94
39455;BME280;25155;41.890;23.446;2023-05-19T01:48:12;91969.91;;;10.57;79.16
39455;BME280;25155;41.890;23.446;2023-05-19T01:50:41;91976.16;;;10.56;78.81
39455;BME280;25155;41.890;23.446;2023-05-19T01:53:08;91972.28;;;10.53;78.70
39455;BME280;25155;41.890;23.446;2023-05-19T01:55:41;91978.25;;;10.53;78.67
39455;BME280;25155;41.890;23.446;2023-05-19T01:58:09;91977.22;;;10.44;78.84
39455;BME280;25155;41.890;23.446;2023-05-19T02:00:42;91976.16;;;10.40;78.88
39455;BME280;25155;41.890;23.446;2023-05-19T02:03:17;91974.84;;;10.38;78.64
39455;BME280;25155;41.890;23.446;2023-05-19T02:05:51;91970.19;;;10.34;78.75
39455;BME280;25155;41.890;23.446;2023-05-19T02:08:39;91976.91;;;10.30;78.40
39455;BME280;25155;41.890;23.446;2023-05-19T02:11:08;91982.38;;;10.29;78.76
39455;BME280;25155;41.890;23.446;2023-05-19T02:13:41;91976.66;;;10.27;78.73
39455;BME280;25155;41.890;23.446;2023-05-19T02:16:09;91981.34;;;10.25;78.31
39455;BME280;25155;41.890;23.446;2023-05-19T02:18:40;91983.41;;;10.23;78.08
39455;BME280;25155;41.890;23.446;2023-05-19T02:21:09;91992.81;;;10.19;78.57
39455;BME280;25155;41.890;23.446;2023-05-19T02:23:38;91977.94;;;10.14;78.62
39455;BME280;25155;41.890;23.446;2023-05-19T02:26:05;91985.75;;;10.09;78.45
39455;BME280;25155;41.890;23.446;2023-05-19T02:28:33;91990.69;;;10.05;78.88
39455;BME280;25155;41.890;23.446;2023-05-19T02:31:01;91990.19;;;10.03;79.30
39455;BME280;25155;41.890;23.446;2023-05-19T02:33:43;91986.00;;;10.02;79.65
39455;BME280;25155;41.890;23.446;2023-05-19T02:36:10;91993.28;;;9.95;80.58
39455;BME280;25155;41.890;23.446;2023-05-19T02:38:39;92004.19;;;9.87;81.50
39455;BME280;25155;41.890;23.446;2023-05-19T02:41:06;92003.69;;;9.85;81.84
39455;BME280;25155;41.890;23.446;2023-05-19T02:43:33;91998.75;;;9.88;81.69
39455;BME280;25155;41.890;23.446;2023-05-19T02:46:00;91997.69;;;9.89;82.10
39455;BME280;25155;41.890;23.446;2023-05-19T02:48:27;92003.44;;;9.91;82.12
39455;BME280;25155;41.890;23.446;2023-05-19T02:50:56;91999.25;;;9.95;81.81
39455;BME280;25155;41.890;23.446;2023-05-19T02:53:23;92008.41;;;9.98;81.71
39455;BME280;25155;41.890;23.446;2023-05-19T02:55:50;92001.38;;;9.98;81.61
39455;BME280;25155;41.890;23.446;2023-05-19T02:58:17;92003.19;;;9.98;81.25
39455;BME280;25155;41.890;23.446;2023-05-19T03:00:45;92005.53;;;10.00;81.58
39455;BME280;25155;41.890;23.446;2023-05-19T03:03:12;92012.56;;;9.99;81.40
39455;BME280;25155;41.890;23.446;2023-05-19T03:05:39;92002.66;;;10.01;81.31
39455;BME280;25155;41.890;23.446;2023-05-19T03:08:07;92005.81;;;10.03;80.96
39455;BME280;25155;41.890;23.446;2023-05-19T03:10:35;92006.84;;;10.02;80.41
39455;BME280;25155;41.890;23.446;2023-05-19T03:13:02;92014.66;;;9.97;80.42
39455;BME280;25155;41.890;23.446;2023-05-19T03:15:29;92016.47;;;9.96;80.93
39455;BME280;25155;41.890;23.446;2023-05-19T03:17:57;92016.47;;;9.96;80.80
39455;BME280;25155;41.890;23.446;2023-05-19T03:20:24;92017.75;;;9.94;80.62
39455;BME280;25155;41.890;23.446;2023-05-19T03:22:50;92018.25;;;9.86;80.71
39455;BME280;25155;41.890;23.446;2023-05-19T03:25:19;92009.88;;;9.68;81.39
39455;BME280;25155;41.890;23.446;2023-05-19T03:27:46;92020.72;;;9.55;82.73
39455;BME280;25155;41.890;23.446;2023-05-19T03:30:13;92025.13;;;9.49;83.02
39455;BME280;25155;41.890;23.446;2023-05-19T03:32:40;92026.69;;;9.45;83.77
39455;BME280;25155;41.890;23.446;2023-05-19T03:35:07;92019.63;;;9.35;84.98
39455;BME280;25155;41.890;23.446;2023-05-19T03:37:34;92023.66;;;9.16;85.94
39455;BME280;25155;41.890;23.446;2023-05-19T03:40:02;92019.47;;;9.15;86.36
39455;BME280;25155;41.890;23.446;2023-05-19T03:42:31;92014.03;;;9.16;87.09
39455;BME280;25155;41.890;23.446;2023-05-19T03:44:58;92017.69;;;9.15;86.39
39455;BME280;25155;41.890;23.446;2023-05-19T03:47:25;92016.38;;;9.18;86.44
39455;BME280;25155;41.890;23.446;2023-05-19T03:49:52;92016.91;;;9.20;86.57
39455;BME280;25155;41.890;23.446;2023-05-19T03:52:19;92016.44;;;9.28;86.55
39455;BME280;25155;41.890;23.446;2023-05-19T03:54:46;92026.34;;;9.31;86.75
39455;BME280;25155;41.890;23.446;2023-05-19T03:57:13;92030.56;;;9.37;86.47
39455;BME280;25155;41.890;23.446;2023-05-19T03:59:41;92028.75;;;9.43;86.95
39455;BME280;25155;41.890;23.446;2023-05-19T04:02:08;92033.94;;;9.43;86.80
39455;BME280;25155;41.890;23.446;2023-05-19T04:04:35;92041.53;;;9.50;86.28
39455;BME280;25155;41.890;23.446;2023-05-19T04:07:02;92027.50;;;9.56;85.93
39455;BME280;25155;41.890;23.446;2023-05-19T04:09:29;92035.09;;;9.63;85.92
39455;BME280;25155;41.890;23.446;2023-05-19T04:12:01;92036.94;;;9.67;85.60
39455;BME280;25155;41.890;23.446;2023-05-19T04:14:28;92029.91;;;9.73;85.53
39455;BME280;25155;41.890;23.446;2023-05-19T04:16:56;92035.94;;;9.78;85.09
39455;BME280;25155;41.890;23.446;2023-05-19T04:19:24;92040.16;;;9.85;85.11
39455;BME280;25155;41.890;23.446;2023-05-19T04:21:51;92040.41;;;9.88;85.28
39455;BME280;25155;41.890;23.446;2023-05-19T04:24:18;92047.44;;;9.93;85.29
39455;BME280;25155;41.890;23.446;2023-05-19T04:26:45;92049.03;;;9.94;85.11
39455;BME280;25155;41.890;23.446;2023-05-19T04:29:12;92041.72;;;9.96;85.21
39455;BME280;25155;41.890;23.446;2023-05-19T04:31:42;92042.03;;;10.00;85.03
39455;BME280;25155;41.890;23.446;2023-05-19T04:34:10;92035.75;;;10.01;85.00
39455;BME280;25155;41.890;23.446;2023-05-19T04:36:37;92048.03;;;10.05;85.04
39455;BME280;25155;41.890;23.446;2023-05-19T04:39:04;92042.81;;;10.10;84.58
39455;BME280;25155;41.890;23.446;2023-05-19T04:41:32;92045.44;;;10.15;84.53
39455;BME280;25155;41.890;23.446;2023-05-19T04:43:59;92034.50;;;10.19;84.63
39455;BME280;25155;41.890;23.446;2023-05-19T04:46:26;92038.44;;;10.21;85.03
39455;BME280;25155;41.890;23.446;2023-05-19T04:48:54;92042.31;;;10.13;85.00
39455;BME280;25155;41.890;23.446;2023-05-19T04:51:22;92047.78;;;10.17;85.53
39455;BME280;25155;41.890;23.446;2023-05-19T04:53:52;92056.94;;;10.20;85.58
39455;BME280;25155;41.890;23.446;2023-05-19T04:56:19;92058.22;;;10.22;86.08
39455;BME280;25155;41.890;23.446;2023-05-19T04:58:46;92055.66;;;10.32;86.14
39455;BME280;25155;41.890;23.446;2023-05-19T05:01:13;92048.91;;;10.42;86.25
39455;BME280;25155;41.890;23.446;2023-05-19T05:03:41;92056.75;;;10.52;86.40
39455;BME280;25155;41.890;23.446;2023-05-19T05:06:08;92056.25;;;10.65;86.20
39455;BME280;25155;41.890;23.446;2023-05-19T05:08:37;92045.81;;;10.70;85.82
39455;BME280;25155;41.890;23.446;2023-05-19T05:11:06;92055.47;;;10.75;85.48
39455;BME280;25155;41.890;23.446;2023-05-19T05:13:33;92059.66;;;10.81;85.83
39455;BME280;25155;41.890;23.446;2023-05-19T05:16:01;92053.13;;;10.79;83.60
39455;BME280;25155;41.890;23.446;2023-05-19T05:18:29;92056.00;;;10.77;82.93
39455;BME280;25155;41.890;23.446;2023-05-19T05:20:56;92060.19;;;10.83;83.58
39455;BME280;25155;41.890;23.446;2023-05-19T05:23:23;92057.81;;;10.92;83.58
39455;BME280;25155;41.890;23.446;2023-05-19T05:25:52;92057.56;;;10.99;83.50
39455;BME280;25155;41.890;23.446;2023-05-19T05:28:19;92053.41;;;11.08;83.37
39455;BME280;25155;41.890;23.446;2023-05-19T05:30:46;92063.56;;;11.20;83.25
39455;BME280;25155;41.890;23.446;2023-05-19T05:33:13;92055.47;;;11.26;82.50
39455;BME280;25155;41.890;23.446;2023-05-19T05:35:40;92065.38;;;11.24;79.59
39455;BME280;25155;41.890;23.446;2023-05-19T05:38:07;92065.13;;;11.31;80.33
39455;BME280;25155;41.890;23.446;2023-05-19T05:40:35;92053.38;;;11.39;80.63
39455;BME280;25155;41.890;23.446;2023-05-19T05:43:04;92055.44;;;11.42;79.42
39455;BME280;25155;41.890;23.446;2023-05-19T05:45:30;92059.59;;;11.48;79.03
39455;BME280;25155;41.890;23.446;2023-05-19T05:47:57;92055.41;;;11.57;78.91
39455;BME280;25155;41.890;23.446;2023-05-19T05:50:25;92069.22;;;11.63;79.32
39455;BME280;25155;41.890;23.446;2023-05-19T05:52:52;92064.25;;;11.67;79.47
39455;BME280;25155;41.890;23.446;2023-05-19T05:55:19;92066.88;;;11.72;79.38
39455;BME280;25155;41.890;23.446;2023-05-19T05:57:47;92068.41;;;11.78;79.61
39455;BME280;25155;41.890;23.446;2023-05-19T06:00:16;92069.69;;;11.86;79.78
39455;BME280;25155;41.890;23.446;2023-05-19T06:02:44;92067.31;;;11.89;78.26
39455;BME280;25155;41.890;23.446;2023-05-19T06:05:12;92069.94;;;11.94;78.70
39455;BME280;25155;41.890;23.446;2023-05-19T06:07:39;92070.97;;;12.04;78.67
39455;BME280;25155;41.890;23.446;2023-05-19T06:10:06;92079.56;;;12.09;78.34
39455;BME280;25155;41.890;23.446;2023-05-19T06:12:34;92075.63;;;12.17;78.75
39455;BME280;25155;41.890;23.446;2023-05-19T06:15:04;92079.22;;;12.31;79.61
39455;BME280;25155;41.890;23.446;2023-05-19T06:17:33;92075.75;;;12.41;78.43
39455;BME280;25155;41.890;23.446;2023-05-19T06:20:00;92088.25;;;12.49;77.20
39455;BME280;25155;41.890;23.446;2023-05-19T06:22:27;92078.81;;;12.59;77.30
39455;BME280;25155;41.890;23.446;2023-05-19T06:24:54;92080.03;;;12.71;77.71
39455;BME280;25155;41.890;23.446;2023-05-19T06:27:21;92074.19;;;12.85;78.24
39455;BME280;25155;41.890;23.446;2023-05-19T06:29:48;92065.22;;;12.96;76.53
39455;BME280;25155;41.890;23.446;2023-05-19T06:32:15;92069.34;;;13.02;74.91
39455;BME280;25155;41.890;23.446;2023-05-19T06:34:43;92070.59;;;13.10;75.42
39455;BME280;25155;41.890;23.446;2023-05-19T06:37:10;92069.97;;;13.23;76.20
39455;BME280;25155;41.890;23.446;2023-05-19T06:39:39;92069.59;;;13.40;77.20
39455;BME280;25155;41.890;23.446;2023-05-19T06:42:06;92066.63;;;13.52;76.46
39455;BME280;25155;41.890;23.446;2023-05-19T06:44:32;92067.00;;;13.64;76.42
39455;BME280;25155;41.890;23.446;2023-05-19T06:46:59;92070.88;;;13.72;76.59
39455;BME280;25155;41.890;23.446;2023-05-19T06:49:26;92064.97;;;13.86;77.35
39455;BME280;25155;41.890;23.446;2023-05-19T06:51:55;92061.38;;;14.00;77.28
39455;BME280;25155;41.890;23.446;2023-05-19T06:54:22;92064.94;;;14.10;77.24
39455;BME280;25155;41.890;23.446;2023-05-19T06:56:49;92070.13;;;14.15;73.63
39455;BME280;25155;41.890;23.446;2023-05-19T06:59:17;92067.94;;;14.22;72.76
39455;BME280;25155;41.890;23.446;2023-05-19T07:01:46;92062.91;;;14.26;70.37
39455;BME280;25155;41.890;23.446;2023-05-19T07:04:13;92063.06;;;14.34;71.97
39455;BME280;25155;41.890;23.446;2023-05-19T07:06:40;92063.22;;;14.43;71.98
39455;BME280;25155;41.890;23.446;2023-05-19T07:09:08;92057.84;;;14.53;72.17
39455;BME280;25155;41.890;23.446;2023-05-19T07:11:35;92069.28;;;14.63;70.56
39455;BME280;25155;41.890;23.446;2023-05-19T07:14:02;92055.16;;;14.77;71.11
39455;BME280;25155;41.890;23.446;2023-05-19T07:16:29;92063.59;;;14.93;69.73
39455;BME280;25155;41.890;23.446;2023-05-19T07:18:55;92065.28;;;15.03;69.22
39455;BME280;25155;41.890;23.446;2023-05-19T07:21:22;92073.50;;;15.16;68.24
39455;BME280;25155;41.890;23.446;2023-05-19T07:23:49;92070.41;;;15.27;65.92
39455;BME280;25155;41.890;23.446;2023-05-19T07:26:17;92073.28;;;15.45;65.72
39455;BME280;25155;41.890;23.446;2023-05-19T07:28:44;92066.72;;;15.61;62.32
39455;BME280;25155;41.890;23.446;2023-05-19T07:31:11;92070.81;;;15.67;60.17
39455;BME280;25155;41.890;23.446;2023-05-19T07:33:38;92064.84;;;15.62;56.14
39455;BME280;25155;41.890;23.446;2023-05-19T07:36:04;92075.56;;;15.65;56.84
39455;BME280;25155;41.890;23.446;2023-05-19T07:38:33;92076.97;;;15.77;54.78
39455;BME280;25155;41.890;23.446;2023-05-19T07:41:00;92074.84;;;15.93;58.00
39455;BME280;25155;41.890;23.446;2023-05-19T07:43:28;92082.75;;;16.07;54.47
39455;BME280;25155;41.890;23.446;2023-05-19T07:45:55;92080.53;;;16.14;52.95
39455;BME280;25155;41.890;23.446;2023-05-19T07:48:22;92081.97;;;16.20;52.54
39455;BME280;25155;41.890;23.446;2023-05-19T07:50:50;92084.19;;;16.27;51.36
39455;BME280;25155;41.890;23.446;2023-05-19T07:53:17;92086.16;;;16.35;53.65
39455;BME280;25155;41.890;23.446;2023-05-19T07:55:46;92076.97;;;16.46;50.80
39455;BME280;25155;41.890;23.446;2023-05-19T07:58:12;92084.28;;;16.49;51.18
39455;BME280;25155;41.890;23.446;2023-05-19T08:00:41;92073.25;;;16.61;52.34
39455;BME280;25155;41.890;23.446;2023-05-19T08:03:10;92085.59;;;16.74;49.98
39455;BME280;25155;41.890;23.446;2023-05-19T08:05:37;92089.97;;;16.79;50.31
39455;BME280;25155;41.890;23.446;2023-05-19T08:08:04;92086.47;;;16.84;50.64
39455;BME280;25155;41.890;23.446;2023-05-19T08:10:31;92093.88;;;16.95;52.38
39455;BME280;25155;41.890;23.446;2023-05-19T08:12:58;92096.44;;;17.09;53.65
39455;BME280;25155;41.890;23.446;2023-05-19T08:15:25;92086.94;;;17.22;51.34
39455;BME280;25155;41.890;23.446;2023-05-19T08:17:53;92087.78;;;17.31;52.42
39455;BME280;25155;41.890;23.446;2023-05-19T08:20:20;92085.56;;;17.47;52.79
39455;BME280;25155;41.890;23.446;2023-05-19T08:22:48;92087.34;;;17.61;51.28
39455;BME280;25155;41.890;23.446;2023-05-19T08:25:15;92093.34;;;17.52;50.34
39455;BME280;25155;41.890;23.446;2023-05-19T08:27:44;92096.22;;;17.42;52.02
39455;BME280;25155;41.890;23.446;2023-05-19T08:30:11;92098.38;;;17.40;49.78
39455;BME280;25155;41.890;23.446;2023-05-19T08:32:38;92099.34;;;17.44;50.11
39455;BME280;25155;41.890;23.446;2023-05-19T08:35:08;92101.16;;;17.58;50.36
39455;BME280;25155;41.890;23.446;2023-05-19T08:37:35;92097.44;;;17.67;49.17
39455;BME280;25155;41.890;23.446;2023-05-19T08:40:03;92095.66;;;17.77;47.41
39455;BME280;25155;41.890;23.446;2023-05-19T08:42:30;92103.03;;;17.88;50.72
39455;BME280;25155;41.890;23.446;2023-05-19T08:44:58;92099.09;;;18.08;49.37
39455;BME280;25155;41.890;23.446;2023-05-19T08:47:25;92103.63;;;18.17;49.08
39455;BME280;25155;41.890;23.446;2023-05-19T08:49:52;92104.75;;;18.24;48.56
39455;BME280;25155;41.890;23.446;2023-05-19T08:52:26;92099.78;;;18.32;48.06
39455;BME280;25155;41.890;23.446;2023-05-19T08:54:57;92099.03;;;18.40;50.11
39455;BME280;25155;41.890;23.446;2023-05-19T08:57:27;92103.56;;;18.48;49.68
39455;BME280;25155;41.890;23.446;2023-05-19T08:59:54;92101.88;;;18.52;46.63
39455;BME280;25155;41.890;23.446;2023-05-19T09:02:21;92105.44;;;18.48;46.98
39455;BME280;25155;41.890;23.446;2023-05-19T09:04:49;92105.75;;;18.46;48.96
39455;BME280;25155;41.890;23.446;2023-05-19T09:07:16;92102.97;;;18.51;47.49
39455;BME280;25155;41.890;23.446;2023-05-19T09:09:45;92097.00;;;18.37;47.52
39455;BME280;25155;41.890;23.446;2023-05-19T09:12:13;92094.38;;;18.37;49.23
39455;BME280;25155;41.890;23.446;2023-05-19T09:14:40;92093.44;;;18.33;48.11
39455;BME280;25155;41.890;23.446;2023-05-19T09:17:07;92091.22;;;18.17;46.59
39455;BME280;25155;41.890;23.446;2023-05-19T09:19:34;92094.75;;;18.13;48.83
39455;BME280;25155;41.890;23.446;2023-05-19T09:22:00;92104.88;;;18.19;49.42
39455;BME280;25155;41.890;23.446;2023-05-19T09:24:28;92100.69;;;18.27;49.40
39455;BME280;25155;41.890;23.446;2023-05-19T09:26:57;92097.75;;;18.29;47.71
39455;BME280;25155;41.890;23.446;2023-05-19T09:29:24;92099.78;;;18.32;49.06
39455;BME280;25155;41.890;23.446;2023-05-19T09:31:51;92099.19;;;18.35;49.50
39455;BME280;25155;41.890;23.446;2023-05-19T09:34:19;92097.50;;;18.39;50.58
39455;BME280;25155;41.890;23.446;2023-05-19T09:36:49;92097.81;;;18.46;50.65
39455;BME280;25155;41.890;23.446;2023-05-19T09:39:17;92099.88;;;18.58;50.88
39455;BME280;25155;41.890;23.446;2023-05-19T09:41:44;92096.47;;;18.66;50.98
39455;BME280;25155;41.890;23.446;2023-05-19T09:44:14;92099.88;;;18.67;48.53
39455;BME280;25155;41.890;23.446;2023-05-19T09:46:47;92099.88;;;18.67;49.47
39455;BME280;25155;41.890;23.446;2023-05-19T09:49:17;92095.84;;;18.69;50.35
39455;BME280;25155;41.890;23.446;2023-05-19T09:51:44;92099.41;;;18.73;50.70
39455;BME280;25155;41.890;23.446;2023-05-19T09:54:13;92098.03;;;18.76;50.79
39455;BME280;25155;41.890;23.446;2023-05-19T09:56:40;92101.44;;;18.76;50.35
39455;BME280;25155;41.890;23.446;2023-05-19T09:59:07;92096.97;;;18.77;50.66
39455;BME280;25155;41.890;23.446;2023-05-19T10:01:36;92095.53;;;18.71;49.86
39455;BME280;25155;41.890;23.446;2023-05-19T10:04:05;92091.47;;;18.65;48.79
39455;BME280;25155;41.890;23.446;2023-05-19T10:06:32;92090.09;;;18.67;49.39
39455;BME280;25155;41.890;23.446;2023-05-19T10:08:59;92085.91;;;18.66;48.50
39455;BME280;25155;41.890;23.446;2023-05-19T10:11:26;92081.38;;;18.67;48.83
39455;BME280;25155;41.890;23.446;2023-05-19T10:13:55;92086.34;;;18.59;47.04
39455;BME280;25155;41.890;23.446;2023-05-19T10:16:22;92083.56;;;18.56;47.66
39455;BME280;25155;41.890;23.446;2023-05-19T10:18:52;92078.28;;;18.56;47.30
39455;BME280;25155;41.890;23.446;2023-05-19T10:21:20;92080.59;;;18.49;46.76
39455;BME280;25155;41.890;23.446;2023-05-19T10:23:47;92081.50;;;18.44;46.95
39455;BME280;25155;41.890;23.446;2023-05-19T10:26:14;92086.19;;;18.47;47.42
39455;BME280;25155;41.890;23.446;2023-05-19T10:28:42;92081.03;;;18.42;47.22
39455;BME280;25155;41.890;23.446;2023-05-19T10:31:11;92077.78;;;18.45;47.54
39455;BME280;25155;41.890;23.446;2023-05-19T10:33:50;92080.25;;;18.41;46.74
39455;BME280;25155;41.890;23.446;2023-05-19T10:36:29;92072.34;;;18.50;48.56
39455;BME280;25155;41.890;23.446;2023-05-19T10:39:03;92064.75;;;18.75;49.33
39455;BME280;25155;41.890;23.446;2023-05-19T10:41:32;92076.31;;;18.96;48.55
39455;BME280;25155;41.890;23.446;2023-05-19T10:44:02;92069.81;;;19.20;48.60
39455;BME280;25155;41.890;23.446;2023-05-19T10:46:31;92079.88;;;19.44;48.66
39455;BME280;25155;41.890;23.446;2023-05-19T10:48:58;92074.69;;;19.65;47.82
39455;BME280;25155;41.890;23.446;2023-05-19T10:51:30;92071.75;;;19.84;49.03
39455;BME280;25155;41.890;23.446;2023-05-19T10:53:57;92070.59;;;19.94;46.50
39455;BME280;25155;41.890;23.446;2023-05-19T10:56:27;92077.00;;;19.93;44.22
39455;BME280;25155;41.890;23.446;2023-05-19T10:58:57;92067.22;;;19.85;45.20
39455;BME280;25155;41.890;23.446;2023-05-19T11:01:28;92074.34;;;19.93;46.29
39455;BME280;25155;41.890;23.446;2023-05-19T11:03:55;92062.00;;;20.06;44.99
39455;BME280;25155;41.890;23.446;2023-05-19T11:06:26;92062.56;;;20.20;46.87
39455;BME280;25155;41.890;23.446;2023-05-19T11:08:58;92054.84;;;20.36;46.35
39455;BME280;25155;41.890;23.446;2023-05-19T11:11:26;92060.72;;;20.51;44.96
39455;BME280;25155;41.890;23.446;2023-05-19T11:13:54;92046.63;;;20.59;43.42
39455;BME280;25155;41.890;23.446;2023-05-19T11:16:27;92035.22;;;20.67;39.83
39455;BME280;25155;41.890;23.446;2023-05-19T11:18:54;92042.19;;;20.72;41.07
39455;BME280;25155;41.890;23.446;2023-05-19T11:21:21;92034.53;;;20.79;43.24
39455;BME280;25155;41.890;23.446;2023-05-19T11:23:49;92034.91;;;20.90;42.27
39455;BME280;25155;41.890;23.446;2023-05-19T11:28:59;92041.63;;;20.87;40.96
39455;BME280;25155;41.890;23.446;2023-05-19T11:31:27;92043.69;;;20.81;39.25
39455;BME280;25155;41.890;23.446;2023-05-19T11:33:55;92052.47;;;20.73;39.69
39455;BME280;25155;41.890;23.446;2023-05-19T11:36:22;92049.56;;;20.66;40.95
39455;BME280;25155;41.890;23.446;2023-05-19T11:38:50;92051.28;;;20.62;41.41
39455;BME280;25155;41.890;23.446;2023-05-19T11:41:17;92050.81;;;20.60;42.52
39455;BME280;25155;41.890;23.446;2023-05-19T11:43:44;92055.03;;;20.61;43.08
39455;BME280;25155;41.890;23.446;2023-05-19T11:46:14;92056.88;;;20.60;42.50
39455;BME280;25155;41.890;23.446;2023-05-19T11:48:41;92054.44;;;20.55;42.22
39455;BME280;25155;41.890;23.446;2023-05-19T11:51:08;92053.31;;;20.65;43.27
39455;BME280;25155;41.890;23.446;2023-05-19T11:53:34;92042.91;;;20.81;43.63
39455;BME280;25155;41.890;23.446;2023-05-19T11:56:03;92050.28;;;20.96;42.85
39455;BME280;25155;41.890;23.446;2023-05-19T11:58:30;92052.88;;;21.05;42.80
39455;BME280;25155;41.890;23.446;2023-05-19T12:01:02;92054.34;;;21.15;42.95
39455;BME280;25155;41.890;23.446;2023-05-19T12:03:30;92052.41;;;21.03;38.30
39455;BME280;25155;41.890;23.446;2023-05-19T12:05:57;92057.38;;;20.83;38.70
39455;BME280;25155;41.890;23.446;2023-05-19T12:08:24;92057.31;;;20.71;39.42
39455;BME280;25155;41.890;23.446;2023-05-19T12:10:51;92051.91;;;20.68;40.88
39455;BME280;25155;41.890;23.446;2023-05-19T12:13:18;92048.50;;;20.58;39.71
39455;BME280;25155;41.890;23.446;2023-05-19T12:15:46;92057.59;;;20.49;39.13
39455;BME280;25155;41.890;23.446;2023-05-19T12:18:14;92052.03;;;20.41;40.63
39455;BME280;25155;41.890;23.446;2023-05-19T12:20:42;92047.81;;;20.40;41.24
39455;BME280;25155;41.890;23.446;2023-05-19T12:23:09;92045.63;;;20.42;41.52
39455;BME280;25155;41.890;23.446;2023-05-19T12:25:36;92049.38;;;20.41;41.65
39455;BME280;25155;41.890;23.446;2023-05-19T12:28:04;92043.63;;;20.39;41.49
39455;BME280;25155;41.890;23.446;2023-05-19T12:30:31;92044.41;;;20.40;42.35
39455;BME280;25155;41.890;23.446;2023-05-19T12:32:58;92031.91;;;20.40;42.59
39455;BME280;25155;41.890;23.446;2023-05-19T12:35:26;92035.16;;;20.46;42.61
39455;BME280;25155;41.890;23.446;2023-05-19T12:37:55;92040.16;;;20.48;41.90
39455;BME280;25155;41.890;23.446;2023-05-19T12:40:22;92044.16;;;20.54;42.46
39455;BME280;25155;41.890;23.446;2023-05-19T12:42:50;92041.63;;;20.66;41.19
39455;BME280;25155;41.890;23.446;2023-05-19T12:45:22;92047.25;;;20.86;41.82
39455;BME280;25155;41.890;23.446;2023-05-19T12:47:50;92047.19;;;20.94;39.86
39455;BME280;25155;41.890;23.446;2023-05-19T12:50:17;92040.72;;;21.04;40.86
39455;BME280;25155;41.890;23.446;2023-05-19T12:52:44;92042.53;;;21.12;41.07
39455;BME280;25155;41.890;23.446;2023-05-19T12:55:13;92038.59;;;21.18;40.96
39455;BME280;25155;41.890;23.446;2023-05-19T12:57:41;92033.97;;;21.28;40.67